sensor_id;sensor_type;location;lat;lon;timestamp;P1;durP1;ratioP1;P2;durP2;ratioP2
69226;SDS011;56334;52.398;7.552;2023-05-31T00:00:48;15.10;;;5.60;;
69226;SDS011;56334;52.398;7.552;2023-05-31T00:03:14;17.15;;;5.35;;
69226;SDS011;56334;52.398;7.552;2023-05-31T00:05:40;14.50;;;5.40;;
69226;SDS011;56334;52.398;7.552;2023-05-31T00:08:06;14.65;;;5.63;;
69226;SDS011;56334;52.398;7.552;2023-05-31T00:10:32;14.48;;;5.43;;
69226;SDS011;56334;52.398;7.552;2023-05-31T00:12:58;18.75;;;6.50;;
69226;SDS011;56334;52.398;7.552;2023-05-31T00:15:24;14.05;;;5.60;;
69226;SDS011;56334;52.398;7.552;2023-05-31T00:17:50;15.88;;;5.97;;
69226;SDS011;56334;52.398;7.552;2023-05-31T00:20:16;16.58;;;6.20;;
69226;SDS011;56334;52.398;7.552;2023-05-31T00:22:42;16.40;;;6.10;;
69226;SDS011;56334;52.398;7.552;2023-05-31T00:25:08;16.27;;;6.10;;
69226;SDS011;56334;52.398;7.552;2023-05-31T00:27:34;14.40;;;5.10;;
69226;SDS011;56334;52.398;7.552;2023-05-31T00:30:00;14.35;;;5.38;;
69226;SDS011;56334;52.398;7.552;2023-05-31T00:32:26;14.63;;;5.50;;
69226;SDS011;56334;52.398;7.552;2023-05-31T00:34:52;17.27;;;5.50;;
69226;SDS011;56334;52.398;7.552;2023-05-31T00:37:18;16.60;;;5.50;;
69226;SDS011;56334;52.398;7.552;2023-05-31T00:39:44;14.43;;;5.13;;
69226;SDS011;56334;52.398;7.552;2023-05-31T00:42:10;14.80;;;5.70;;
69226;SDS011;56334;52.398;7.552;2023-05-31T00:44:36;16.52;;;5.15;;
69226;SDS011;56334;52.398;7.552;2023-05-31T00:47:03;16.92;;;6.13;;
69226;SDS011;56334;52.398;7.552;2023-05-31T00:49:30;14.23;;;5.47;;
69226;SDS011;56334;52.398;7.552;2023-05-31T00:51:56;14.25;;;5.35;;
69226;SDS011;56334;52.398;7.552;2023-05-31T00:54:22;15.32;;;5.95;;
69226;SDS011;56334;52.398;7.552;2023-05-31T00:56:48;15.48;;;6.22;;
69226;SDS011;56334;52.398;7.552;2023-05-31T00:59:15;15.35;;;5.65;;
69226;SDS011;56334;52.398;7.552;2023-05-31T01:01:41;16.15;;;5.75;;
69226;SDS011;56334;52.398;7.552;2023-05-31T01:04:08;14.93;;;6.10;;
69226;SDS011;56334;52.398;7.552;2023-05-31T01:06:34;17.35;;;6.53;;
69226;SDS011;56334;52.398;7.552;2023-05-31T01:09:04;16.02;;;5.75;;
69226;SDS011;56334;52.398;7.552;2023-05-31T01:27:30;14.55;;;5.35;;
69226;SDS011;56334;52.398;7.552;2023-05-31T01:29:57;19.10;;;6.18;;
69226;SDS011;56334;52.398;7.552;2023-05-31T01:32:24;17.98;;;6.30;;
69226;SDS011;56334;52.398;7.552;2023-05-31T01:34:51;18.73;;;6.05;;
69226;SDS011;56334;52.398;7.552;2023-05-31T01:37:18;17.95;;;6.32;;
69226;SDS011;56334;52.398;7.552;2023-05-31T01:39:44;16.85;;;6.25;;
69226;SDS011;56334;52.398;7.552;2023-05-31T01:42:11;18.27;;;6.40;;
69226;SDS011;56334;52.398;7.552;2023-05-31T01:44:38;16.23;;;5.85;;
69226;SDS011;56334;52.398;7.552;2023-05-31T01:47:04;18.52;;;6.07;;
69226;SDS011;56334;52.398;7.552;2023-05-31T01:49:31;19.55;;;6.10;;
69226;SDS011;56334;52.398;7.552;2023-05-31T01:51:58;18.45;;;6.70;;
69226;SDS011;56334;52.398;7.552;2023-05-31T01:54:24;18.23;;;6.43;;
69226;SDS011;56334;52.398;7.552;2023-05-31T01:56:50;17.85;;;6.60;;
69226;SDS011;56334;52.398;7.552;2023-05-31T01:59:16;18.77;;;6.75;;
69226;SDS011;56334;52.398;7.552;2023-05-31T02:01:43;18.80;;;7.07;;
69226;SDS011;56334;52.398;7.552;2023-05-31T02:04:10;17.52;;;5.63;;
69226;SDS011;56334;52.398;7.552;2023-05-31T02:06:36;18.50;;;5.85;;
69226;SDS011;56334;52.398;7.552;2023-05-31T02:09:03;19.35;;;6.55;;
69226;SDS011;56334;52.398;7.552;2023-05-31T02:11:29;18.52;;;7.00;;
69226;SDS011;56334;52.398;7.552;2023-05-31T02:13:55;19.33;;;6.40;;
69226;SDS011;56334;52.398;7.552;2023-05-31T02:16:21;17.58;;;6.10;;
69226;SDS011;56334;52.398;7.552;2023-05-31T02:18:47;18.80;;;6.93;;
69226;SDS011;56334;52.398;7.552;2023-05-31T02:21:13;17.42;;;6.53;;
69226;SDS011;56334;52.398;7.552;2023-05-31T02:23:39;17.75;;;6.57;;
69226;SDS011;56334;52.398;7.552;2023-05-31T02:26:05;18.42;;;6.47;;
69226;SDS011;56334;52.398;7.552;2023-05-31T02:28:31;16.08;;;6.13;;
69226;SDS011;56334;52.398;7.552;2023-05-31T02:30:58;17.63;;;6.10;;
69226;SDS011;56334;52.398;7.552;2023-05-31T02:35:50;20.85;;;6.75;;
69226;SDS011;56334;52.398;7.552;2023-05-31T02:38:17;16.80;;;6.32;;
69226;SDS011;56334;52.398;7.552;2023-05-31T02:40:44;21.40;;;6.70;;
69226;SDS011;56334;52.398;7.552;2023-05-31T02:43:10;18.35;;;6.40;;
69226;SDS011;56334;52.398;7.552;2023-05-31T02:45:36;21.92;;;6.93;;
69226;SDS011;56334;52.398;7.552;2023-05-31T02:48:02;18.60;;;6.57;;
69226;SDS011;56334;52.398;7.552;2023-05-31T02:50:30;19.70;;;6.95;;
69226;SDS011;56334;52.398;7.552;2023-05-31T02:52:56;19.90;;;6.53;;
69226;SDS011;56334;52.398;7.552;2023-05-31T02:55:22;20.73;;;6.97;;
69226;SDS011;56334;52.398;7.552;2023-05-31T02:57:48;20.08;;;7.00;;
69226;SDS011;56334;52.398;7.552;2023-05-31T03:00:15;18.10;;;6.57;;
69226;SDS011;56334;52.398;7.552;2023-05-31T03:02:42;18.90;;;6.78;;
69226;SDS011;56334;52.398;7.552;2023-05-31T03:05:08;17.60;;;6.60;;
69226;SDS011;56334;52.398;7.552;2023-05-31T03:07:35;19.77;;;7.35;;
69226;SDS011;56334;52.398;7.552;2023-05-31T03:10:01;18.55;;;6.97;;
69226;SDS011;56334;52.398;7.552;2023-05-31T03:12:30;20.05;;;7.07;;
69226;SDS011;56334;52.398;7.552;2023-05-31T03:14:56;19.73;;;7.13;;
69226;SDS011;56334;52.398;7.552;2023-05-31T03:17:22;17.10;;;6.40;;
69226;SDS011;56334;52.398;7.552;2023-05-31T03:19:48;19.60;;;6.82;;
69226;SDS011;56334;52.398;7.552;2023-05-31T03:22:14;17.75;;;6.13;;
69226;SDS011;56334;52.398;7.552;2023-05-31T03:24:41;21.27;;;6.93;;
69226;SDS011;56334;52.398;7.552;2023-05-31T03:27:07;22.60;;;7.20;;
69226;SDS011;56334;52.398;7.552;2023-05-31T03:29:36;19.30;;;6.88;;
69226;SDS011;56334;52.398;7.552;2023-05-31T03:32:03;20.02;;;7.28;;
69226;SDS011;56334;52.398;7.552;2023-05-31T03:34:29;21.98;;;7.28;;
69226;SDS011;56334;52.398;7.552;2023-05-31T03:36:55;22.73;;;7.35;;
69226;SDS011;56334;52.398;7.552;2023-05-31T03:39:21;19.70;;;6.85;;
69226;SDS011;56334;52.398;7.552;2023-05-31T03:41:47;20.60;;;6.25;;
69226;SDS011;56334;52.398;7.552;2023-05-31T03:44:15;19.83;;;6.90;;
69226;SDS011;56334;52.398;7.552;2023-05-31T03:46:41;20.02;;;6.50;;
69226;SDS011;56334;52.398;7.552;2023-05-31T03:49:07;21.58;;;6.72;;
69226;SDS011;56334;52.398;7.552;2023-05-31T03:51:33;20.98;;;7.47;;
69226;SDS011;56334;52.398;7.552;2023-05-31T03:53:59;23.17;;;7.65;;
69226;SDS011;56334;52.398;7.552;2023-05-31T03:56:25;19.10;;;6.47;;
69226;SDS011;56334;52.398;7.552;2023-05-31T03:58:51;21.83;;;6.38;;
69226;SDS011;56334;52.398;7.552;2023-05-31T04:01:17;19.05;;;6.45;;
69226;SDS011;56334;52.398;7.552;2023-05-31T04:03:43;20.75;;;7.00;;
69226;SDS011;56334;52.398;7.552;2023-05-31T04:06:10;20.08;;;6.32;;
69226;SDS011;56334;52.398;7.552;2023-05-31T04:08:36;22.27;;;7.25;;
69226;SDS011;56334;52.398;7.552;2023-05-31T04:11:03;19.85;;;6.35;;
69226;SDS011;56334;52.398;7.552;2023-05-31T04:13:29;19.33;;;6.82;;
69226;SDS011;56334;52.398;7.552;2023-05-31T04:15:55;17.58;;;6.53;;
69226;SDS011;56334;52.398;7.552;2023-05-31T04:18:21;24.02;;;7.50;;
69226;SDS011;56334;52.398;7.552;2023-05-31T04:20:48;20.88;;;7.18;;
69226;SDS011;56334;52.398;7.552;2023-05-31T04:23:14;24.58;;;7.00;;
69226;SDS011;56334;52.398;7.552;2023-05-31T04:25:40;19.33;;;7.13;;
69226;SDS011;56334;52.398;7.552;2023-05-31T04:28:06;20.30;;;7.00;;
69226;SDS011;56334;52.398;7.552;2023-05-31T04:30:32;20.88;;;7.05;;
69226;SDS011;56334;52.398;7.552;2023-05-31T04:32:59;21.48;;;7.65;;
69226;SDS011;56334;52.398;7.552;2023-05-31T04:35:26;20.48;;;6.53;;
69226;SDS011;56334;52.398;7.552;2023-05-31T04:37:54;19.95;;;7.40;;
69226;SDS011;56334;52.398;7.552;2023-05-31T04:40:24;20.30;;;7.47;;
69226;SDS011;56334;52.398;7.552;2023-05-31T04:42:50;20.58;;;7.10;;
69226;SDS011;56334;52.398;7.552;2023-05-31T04:45:16;22.08;;;7.47;;
69226;SDS011;56334;52.398;7.552;2023-05-31T04:47:42;19.25;;;6.65;;
69226;SDS011;56334;52.398;7.552;2023-05-31T04:50:10;22.85;;;8.25;;
69226;SDS011;56334;52.398;7.552;2023-05-31T04:52:36;25.13;;;7.50;;
69226;SDS011;56334;52.398;7.552;2023-05-31T04:55:05;23.58;;;7.57;;
69226;SDS011;56334;52.398;7.552;2023-05-31T04:57:32;21.40;;;8.13;;
69226;SDS011;56334;52.398;7.552;2023-05-31T04:59:59;22.85;;;7.82;;
69226;SDS011;56334;52.398;7.552;2023-05-31T05:02:25;19.88;;;7.88;;
69226;SDS011;56334;52.398;7.552;2023-05-31T05:04:52;20.55;;;7.78;;
69226;SDS011;56334;52.398;7.552;2023-05-31T05:07:18;21.52;;;7.38;;
69226;SDS011;56334;52.398;7.552;2023-05-31T05:09:45;23.17;;;8.60;;
69226;SDS011;56334;52.398;7.552;2023-05-31T05:12:12;19.58;;;7.00;;
69226;SDS011;56334;52.398;7.552;2023-05-31T05:14:38;24.10;;;8.40;;
69226;SDS011;56334;52.398;7.552;2023-05-31T05:17:04;24.25;;;7.40;;
69226;SDS011;56334;52.398;7.552;2023-05-31T05:19:30;21.83;;;8.55;;
69226;SDS011;56334;52.398;7.552;2023-05-31T05:21:57;22.45;;;8.63;;
69226;SDS011;56334;52.398;7.552;2023-05-31T05:24:23;21.75;;;8.15;;
69226;SDS011;56334;52.398;7.552;2023-05-31T05:26:50;25.45;;;8.88;;
69226;SDS011;56334;52.398;7.552;2023-05-31T05:29:16;21.13;;;7.95;;
69226;SDS011;56334;52.398;7.552;2023-05-31T05:31:42;22.15;;;8.73;;
69226;SDS011;56334;52.398;7.552;2023-05-31T05:34:08;23.35;;;8.45;;
69226;SDS011;56334;52.398;7.552;2023-05-31T05:36:35;22.60;;;8.43;;
69226;SDS011;56334;52.398;7.552;2023-05-31T05:39:02;25.20;;;9.55;;
69226;SDS011;56334;52.398;7.552;2023-05-31T05:41:32;22.60;;;8.38;;
69226;SDS011;56334;52.398;7.552;2023-05-31T05:43:58;22.20;;;7.93;;
69226;SDS011;56334;52.398;7.552;2023-05-31T05:46:24;24.23;;;8.57;;
69226;SDS011;56334;52.398;7.552;2023-05-31T05:48:50;24.00;;;8.82;;
69226;SDS011;56334;52.398;7.552;2023-05-31T05:51:16;21.98;;;8.32;;
69226;SDS011;56334;52.398;7.552;2023-05-31T05:53:42;21.48;;;7.90;;
69226;SDS011;56334;52.398;7.552;2023-05-31T05:56:08;21.73;;;8.38;;
69226;SDS011;56334;52.398;7.552;2023-05-31T05:58:36;24.63;;;9.10;;
69226;SDS011;56334;52.398;7.552;2023-05-31T06:01:02;22.95;;;8.10;;
69226;SDS011;56334;52.398;7.552;2023-05-31T06:03:28;18.13;;;6.85;;
69226;SDS011;56334;52.398;7.552;2023-05-31T06:05:55;18.83;;;7.53;;
69226;SDS011;56334;52.398;7.552;2023-05-31T06:08:21;20.80;;;7.50;;
69226;SDS011;56334;52.398;7.552;2023-05-31T06:10:47;24.40;;;7.70;;
69226;SDS011;56334;52.398;7.552;2023-05-31T06:13:13;18.67;;;6.38;;
69226;SDS011;56334;52.398;7.552;2023-05-31T06:15:40;18.92;;;6.82;;
69226;SDS011;56334;52.398;7.552;2023-05-31T06:18:06;21.05;;;6.97;;
69226;SDS011;56334;52.398;7.552;2023-05-31T06:20:33;21.77;;;8.00;;
69226;SDS011;56334;52.398;7.552;2023-05-31T06:22:59;17.23;;;6.80;;
69226;SDS011;56334;52.398;7.552;2023-05-31T06:25:25;19.05;;;6.85;;
69226;SDS011;56334;52.398;7.552;2023-05-31T06:27:51;19.85;;;7.53;;
69226;SDS011;56334;52.398;7.552;2023-05-31T06:30:18;19.00;;;7.18;;
69226;SDS011;56334;52.398;7.552;2023-05-31T06:32:44;22.55;;;8.00;;
69226;SDS011;56334;52.398;7.552;2023-05-31T06:35:10;20.73;;;7.25;;
69226;SDS011;56334;52.398;7.552;2023-05-31T06:37:36;19.35;;;7.43;;
69226;SDS011;56334;52.398;7.552;2023-05-31T06:40:04;19.10;;;7.35;;
69226;SDS011;56334;52.398;7.552;2023-05-31T06:42:31;19.65;;;7.20;;
69226;SDS011;56334;52.398;7.552;2023-05-31T06:44:57;17.60;;;6.75;;
69226;SDS011;56334;52.398;7.552;2023-05-31T06:47:24;19.60;;;7.30;;
69226;SDS011;56334;52.398;7.552;2023-05-31T06:49:51;20.55;;;7.35;;
69226;SDS011;56334;52.398;7.552;2023-05-31T06:52:17;21.42;;;8.20;;
69226;SDS011;56334;52.398;7.552;2023-05-31T06:54:43;17.27;;;6.63;;
69226;SDS011;56334;52.398;7.552;2023-05-31T06:57:09;20.55;;;7.43;;
69226;SDS011;56334;52.398;7.552;2023-05-31T06:59:35;18.05;;;7.05;;
69226;SDS011;56334;52.398;7.552;2023-05-31T07:02:02;18.58;;;6.43;;
69226;SDS011;56334;52.398;7.552;2023-05-31T07:04:28;19.45;;;6.95;;
69226;SDS011;56334;52.398;7.552;2023-05-31T07:06:54;19.17;;;6.78;;
69226;SDS011;56334;52.398;7.552;2023-05-31T07:09:20;21.45;;;7.25;;
69226;SDS011;56334;52.398;7.552;2023-05-31T07:11:48;17.33;;;7.60;;
69226;SDS011;56334;52.398;7.552;2023-05-31T07:14:14;17.17;;;6.88;;
69226;SDS011;56334;52.398;7.552;2023-05-31T07:16:40;19.08;;;7.15;;
69226;SDS011;56334;52.398;7.552;2023-05-31T07:19:06;23.55;;;7.65;;
69226;SDS011;56334;52.398;7.552;2023-05-31T07:21:32;19.88;;;7.63;;
69226;SDS011;56334;52.398;7.552;2023-05-31T07:23:59;18.35;;;6.78;;
69226;SDS011;56334;52.398;7.552;2023-05-31T07:26:25;16.40;;;6.68;;
69226;SDS011;56334;52.398;7.552;2023-05-31T07:28:51;15.98;;;6.35;;
69226;SDS011;56334;52.398;7.552;2023-05-31T07:31:18;16.77;;;6.10;;
69226;SDS011;56334;52.398;7.552;2023-05-31T07:33:44;18.75;;;6.70;;
69226;SDS011;56334;52.398;7.552;2023-05-31T07:36:10;16.38;;;6.22;;
69226;SDS011;56334;52.398;7.552;2023-05-31T07:38:42;16.63;;;6.38;;
69226;SDS011;56334;52.398;7.552;2023-05-31T07:41:08;18.17;;;6.38;;
69226;SDS011;56334;52.398;7.552;2023-05-31T07:43:34;17.13;;;6.32;;
69226;SDS011;56334;52.398;7.552;2023-05-31T07:46:01;21.52;;;7.07;;
69226;SDS011;56334;52.398;7.552;2023-05-31T07:48:27;17.08;;;6.30;;
69226;SDS011;56334;52.398;7.552;2023-05-31T07:50:54;16.10;;;6.53;;
69226;SDS011;56334;52.398;7.552;2023-05-31T07:53:21;17.13;;;6.78;;
69226;SDS011;56334;52.398;7.552;2023-05-31T07:55:47;18.15;;;7.07;;
69226;SDS011;56334;52.398;7.552;2023-05-31T07:58:13;15.50;;;6.50;;
69226;SDS011;56334;52.398;7.552;2023-05-31T08:00:40;19.40;;;6.80;;
69226;SDS011;56334;52.398;7.552;2023-05-31T08:03:06;15.27;;;5.68;;
69226;SDS011;56334;52.398;7.552;2023-05-31T08:05:32;15.75;;;6.07;;
69226;SDS011;56334;52.398;7.552;2023-05-31T08:07:59;15.73;;;6.00;;
69226;SDS011;56334;52.398;7.552;2023-05-31T08:12:51;12.02;;;4.93;;
69226;SDS011;56334;52.398;7.552;2023-05-31T08:15:17;14.25;;;5.50;;
69226;SDS011;56334;52.398;7.552;2023-05-31T08:17:43;12.07;;;4.82;;
69226;SDS011;56334;52.398;7.552;2023-05-31T08:20:11;13.43;;;5.25;;
69226;SDS011;56334;52.398;7.552;2023-05-31T08:22:44;12.27;;;4.95;;
69226;SDS011;56334;52.398;7.552;2023-05-31T08:25:10;12.75;;;4.85;;
69226;SDS011;56334;52.398;7.552;2023-05-31T08:27:41;13.30;;;5.18;;
69226;SDS011;56334;52.398;7.552;2023-05-31T08:30:08;12.23;;;4.60;;
69226;SDS011;56334;52.398;7.552;2023-05-31T08:32:34;13.48;;;4.82;;
69226;SDS011;56334;52.398;7.552;2023-05-31T08:35:00;10.30;;;4.15;;
69226;SDS011;56334;52.398;7.552;2023-05-31T08:37:26;12.48;;;4.82;;
69226;SDS011;56334;52.398;7.552;2023-05-31T08:39:52;10.80;;;3.80;;
69226;SDS011;56334;52.398;7.552;2023-05-31T08:42:21;12.18;;;4.65;;
69226;SDS011;56334;52.398;7.552;2023-05-31T08:44:50;12.55;;;4.45;;
69226;SDS011;56334;52.398;7.552;2023-05-31T08:49:44;12.00;;;4.18;;
69226;SDS011;56334;52.398;7.552;2023-05-31T08:54:37;11.52;;;4.22;;
69226;SDS011;56334;52.398;7.552;2023-05-31T08:57:03;11.73;;;4.18;;
69226;SDS011;56334;52.398;7.552;2023-05-31T08:59:30;13.50;;;4.43;;
69226;SDS011;56334;52.398;7.552;2023-05-31T09:01:57;12.85;;;4.50;;
69226;SDS011;56334;52.398;7.552;2023-05-31T09:04:24;13.27;;;4.10;;
69226;SDS011;56334;52.398;7.552;2023-05-31T09:06:50;11.70;;;4.38;;
69226;SDS011;56334;52.398;7.552;2023-05-31T09:09:17;9.05;;;3.95;;
69226;SDS011;56334;52.398;7.552;2023-05-31T09:11:44;12.32;;;4.40;;
69226;SDS011;56334;52.398;7.552;2023-05-31T09:16:36;12.30;;;4.47;;
69226;SDS011;56334;52.398;7.552;2023-05-31T09:19:04;12.38;;;4.30;;
69226;SDS011;56334;52.398;7.552;2023-05-31T09:21:40;11.18;;;4.10;;
69226;SDS011;56334;52.398;7.552;2023-05-31T09:24:06;13.40;;;3.85;;
69226;SDS011;56334;52.398;7.552;2023-05-31T09:26:32;9.88;;;3.58;;
69226;SDS011;56334;52.398;7.552;2023-05-31T09:28:59;8.65;;;3.15;;
69226;SDS011;56334;52.398;7.552;2023-05-31T09:33:53;8.70;;;2.75;;
69226;SDS011;56334;52.398;7.552;2023-05-31T09:36:23;13.23;;;3.10;;
69226;SDS011;56334;52.398;7.552;2023-05-31T09:38:50;10.68;;;2.83;;
69226;SDS011;56334;52.398;7.552;2023-05-31T09:41:20;9.55;;;2.65;;
69226;SDS011;56334;52.398;7.552;2023-05-31T09:43:47;8.02;;;2.53;;
69226;SDS011;56334;52.398;7.552;2023-05-31T09:46:13;9.95;;;3.25;;
69226;SDS011;56334;52.398;7.552;2023-05-31T09:48:40;11.20;;;3.17;;
69226;SDS011;56334;52.398;7.552;2023-05-31T09:53:32;10.57;;;2.78;;
69226;SDS011;56334;52.398;7.552;2023-05-31T09:56:01;11.85;;;2.75;;
69226;SDS011;56334;52.398;7.552;2023-05-31T09:58:28;9.75;;;2.50;;
69226;SDS011;56334;52.398;7.552;2023-05-31T10:01:00;10.00;;;2.80;;
69226;SDS011;56334;52.398;7.552;2023-05-31T10:03:27;11.00;;;2.60;;
69226;SDS011;56334;52.398;7.552;2023-05-31T10:05:54;8.60;;;2.50;;
69226;SDS011;56334;52.398;7.552;2023-05-31T10:08:21;8.65;;;2.55;;
69226;SDS011;56334;52.398;7.552;2023-05-31T10:10:49;10.82;;;2.60;;
69226;SDS011;56334;52.398;7.552;2023-05-31T10:13:15;9.77;;;2.78;;
69226;SDS011;56334;52.398;7.552;2023-05-31T10:15:45;9.95;;;2.30;;
69226;SDS011;56334;52.398;7.552;2023-05-31T10:18:15;8.32;;;2.33;;
69226;SDS011;56334;52.398;7.552;2023-05-31T10:20:49;10.60;;;2.78;;
69226;SDS011;56334;52.398;7.552;2023-05-31T10:23:22;9.85;;;2.85;;
69226;SDS011;56334;52.398;7.552;2023-05-31T10:31:17;12.05;;;2.97;;
69226;SDS011;56334;52.398;7.552;2023-05-31T10:33:47;10.35;;;2.90;;
69226;SDS011;56334;52.398;7.552;2023-05-31T10:36:14;10.25;;;2.83;;
69226;SDS011;56334;52.398;7.552;2023-05-31T10:38:42;12.75;;;2.80;;
69226;SDS011;56334;52.398;7.552;2023-05-31T10:41:13;8.32;;;2.47;;
69226;SDS011;56334;52.398;7.552;2023-05-31T10:46:10;7.65;;;2.70;;
69226;SDS011;56334;52.398;7.552;2023-05-31T10:48:46;11.55;;;2.50;;
69226;SDS011;56334;52.398;7.552;2023-05-31T10:51:15;10.10;;;2.67;;
69226;SDS011;56334;52.398;7.552;2023-05-31T10:53:43;10.15;;;2.65;;
69226;SDS011;56334;52.398;7.552;2023-05-31T10:56:11;6.82;;;2.03;;
69226;SDS011;56334;52.398;7.552;2023-05-31T10:58:48;9.93;;;2.60;;
69226;SDS011;56334;52.398;7.552;2023-05-31T11:01:18;10.10;;;2.63;;
69226;SDS011;56334;52.398;7.552;2023-05-31T11:03:52;9.95;;;2.40;;
69226;SDS011;56334;52.398;7.552;2023-05-31T11:08:57;7.90;;;2.50;;
69226;SDS011;56334;52.398;7.552;2023-05-31T11:11:27;7.90;;;2.40;;
69226;SDS011;56334;52.398;7.552;2023-05-31T11:13:55;8.48;;;2.78;;
69226;SDS011;56334;52.398;7.552;2023-05-31T11:16:22;9.60;;;2.83;;
69226;SDS011;56334;52.398;7.552;2023-05-31T11:18:48;11.07;;;2.60;;
69226;SDS011;56334;52.398;7.552;2023-05-31T11:26:51;9.40;;;2.40;;
69226;SDS011;56334;52.398;7.552;2023-05-31T11:29:17;9.43;;;2.45;;
69226;SDS011;56334;52.398;7.552;2023-05-31T11:36:44;9.40;;;2.70;;
69226;SDS011;56334;52.398;7.552;2023-05-31T11:39:11;9.60;;;2.70;;
69226;SDS011;56334;52.398;7.552;2023-05-31T11:41:37;8.52;;;2.83;;
69226;SDS011;56334;52.398;7.552;2023-05-31T11:44:04;9.90;;;2.47;;
69226;SDS011;56334;52.398;7.552;2023-05-31T11:46:32;11.27;;;2.70;;
69226;SDS011;56334;52.398;7.552;2023-05-31T11:48:58;9.80;;;3.17;;
69226;SDS011;56334;52.398;7.552;2023-05-31T11:53:54;9.27;;;2.70;;
69226;SDS011;56334;52.398;7.552;2023-05-31T11:56:28;8.70;;;2.78;;
69226;SDS011;56334;52.398;7.552;2023-05-31T11:58:58;8.48;;;2.60;;
69226;SDS011;56334;52.398;7.552;2023-05-31T12:01:25;8.82;;;2.58;;
69226;SDS011;56334;52.398;7.552;2023-05-31T12:03:58;9.05;;;3.10;;
69226;SDS011;56334;52.398;7.552;2023-05-31T12:08:51;7.53;;;2.47;;
69226;SDS011;56334;52.398;7.552;2023-05-31T12:11:17;8.38;;;2.70;;
69226;SDS011;56334;52.398;7.552;2023-05-31T12:16:10;8.13;;;2.60;;
69226;SDS011;56334;52.398;7.552;2023-05-31T12:21:08;7.72;;;2.17;;
69226;SDS011;56334;52.398;7.552;2023-05-31T12:23:56;8.32;;;2.60;;
69226;SDS011;56334;52.398;7.552;2023-05-31T12:26:23;9.55;;;3.20;;
69226;SDS011;56334;52.398;7.552;2023-05-31T12:28:52;10.80;;;2.63;;
69226;SDS011;56334;52.398;7.552;2023-05-31T12:31:20;10.52;;;3.05;;
69226;SDS011;56334;52.398;7.552;2023-05-31T12:39:06;11.02;;;2.78;;
69226;SDS011;56334;52.398;7.552;2023-05-31T12:41:34;8.60;;;2.85;;
69226;SDS011;56334;52.398;7.552;2023-05-31T12:46:26;10.65;;;2.80;;
69226;SDS011;56334;52.398;7.552;2023-05-31T12:51:22;11.23;;;2.85;;
69226;SDS011;56334;52.398;7.552;2023-05-31T12:53:48;9.85;;;2.70;;
69226;SDS011;56334;52.398;7.552;2023-05-31T12:56:14;10.95;;;2.75;;
69226;SDS011;56334;52.398;7.552;2023-05-31T12:58:42;9.57;;;2.60;;
69226;SDS011;56334;52.398;7.552;2023-05-31T13:01:08;8.50;;;2.70;;
69226;SDS011;56334;52.398;7.552;2023-05-31T13:03:34;7.70;;;2.30;;
69226;SDS011;56334;52.398;7.552;2023-05-31T13:08:26;8.30;;;2.60;;
69226;SDS011;56334;52.398;7.552;2023-05-31T13:10:52;8.73;;;2.50;;
69226;SDS011;56334;52.398;7.552;2023-05-31T13:13:18;10.95;;;3.05;;
69226;SDS011;56334;52.398;7.552;2023-05-31T13:15:44;8.82;;;2.47;;
69226;SDS011;56334;52.398;7.552;2023-05-31T13:18:11;8.52;;;2.72;;
69226;SDS011;56334;52.398;7.552;2023-05-31T13:20:37;8.82;;;2.60;;
69226;SDS011;56334;52.398;7.552;2023-05-31T13:23:03;9.13;;;2.78;;
69226;SDS011;56334;52.398;7.552;2023-05-31T13:25:33;8.45;;;2.67;;
69226;SDS011;56334;52.398;7.552;2023-05-31T13:27:59;10.50;;;2.70;;
69226;SDS011;56334;52.398;7.552;2023-05-31T13:32:52;7.88;;;2.60;;
69226;SDS011;56334;52.398;7.552;2023-05-31T13:35:18;7.65;;;2.20;;
69226;SDS011;56334;52.398;7.552;2023-05-31T13:40:10;7.45;;;2.22;;
69226;SDS011;56334;52.398;7.552;2023-05-31T13:42:36;8.00;;;2.58;;
69226;SDS011;56334;52.398;7.552;2023-05-31T13:45:03;8.38;;;2.50;;
69226;SDS011;56334;52.398;7.552;2023-05-31T13:47:29;8.25;;;2.95;;
69226;SDS011;56334;52.398;7.552;2023-05-31T13:49:55;7.45;;;2.50;;
69226;SDS011;56334;52.398;7.552;2023-05-31T13:52:21;7.70;;;2.55;;
69226;SDS011;56334;52.398;7.552;2023-05-31T13:54:48;8.38;;;2.28;;
69226;SDS011;56334;52.398;7.552;2023-05-31T13:59:40;8.02;;;2.55;;
69226;SDS011;56334;52.398;7.552;2023-05-31T14:02:06;9.32;;;3.08;;
69226;SDS011;56334;52.398;7.552;2023-05-31T14:06:58;8.00;;;2.53;;
69226;SDS011;56334;52.398;7.552;2023-05-31T14:09:24;8.88;;;2.50;;
69226;SDS011;56334;52.398;7.552;2023-05-31T14:11:51;10.30;;;3.00;;
69226;SDS011;56334;52.398;7.552;2023-05-31T14:14:17;7.35;;;2.35;;
69226;SDS011;56334;52.398;7.552;2023-05-31T14:24:02;7.90;;;2.40;;
69226;SDS011;56334;52.398;7.552;2023-05-31T14:26:28;9.00;;;2.63;;
69226;SDS011;56334;52.398;7.552;2023-05-31T14:28:55;7.82;;;2.28;;
69226;SDS011;56334;52.398;7.552;2023-05-31T14:31:21;7.45;;;2.03;;
69226;SDS011;56334;52.398;7.552;2023-05-31T14:38:39;6.88;;;2.20;;
69226;SDS011;56334;52.398;7.552;2023-05-31T14:45:57;9.25;;;2.30;;
69226;SDS011;56334;52.398;7.552;2023-05-31T14:48:23;8.43;;;2.10;;
69226;SDS011;56334;52.398;7.552;2023-05-31T14:50:49;9.52;;;2.28;;
69226;SDS011;56334;52.398;7.552;2023-05-31T14:53:15;8.75;;;2.40;;
69226;SDS011;56334;52.398;7.552;2023-05-31T14:55:41;9.60;;;2.20;;
69226;SDS011;56334;52.398;7.552;2023-05-31T15:00:33;9.15;;;2.70;;
69226;SDS011;56334;52.398;7.552;2023-05-31T15:03:00;7.60;;;2.17;;
69226;SDS011;56334;52.398;7.552;2023-05-31T15:05:26;7.88;;;2.40;;
69226;SDS011;56334;52.398;7.552;2023-05-31T15:10:18;8.70;;;2.33;;
69226;SDS011;56334;52.398;7.552;2023-05-31T15:12:45;8.82;;;2.45;;
69226;SDS011;56334;52.398;7.552;2023-05-31T15:15:13;7.40;;;2.40;;
69226;SDS011;56334;52.398;7.552;2023-05-31T15:17:39;9.25;;;2.20;;
69226;SDS011;56334;52.398;7.552;2023-05-31T15:20:06;7.43;;;2.15;;
69226;SDS011;56334;52.398;7.552;2023-05-31T15:22:32;7.65;;;2.13;;
69226;SDS011;56334;52.398;7.552;2023-05-31T15:29:50;6.68;;;2.10;;
69226;SDS011;56334;52.398;7.552;2023-05-31T15:37:09;9.55;;;2.75;;
69226;SDS011;56334;52.398;7.552;2023-05-31T15:39:36;9.10;;;2.53;;
69226;SDS011;56334;52.398;7.552;2023-05-31T15:42:02;7.32;;;2.83;;
69226;SDS011;56334;52.398;7.552;2023-05-31T15:44:32;9.57;;;3.40;;
69226;SDS011;56334;52.398;7.552;2023-05-31T15:46:58;8.60;;;2.75;;
69226;SDS011;56334;52.398;7.552;2023-05-31T15:54:17;8.95;;;2.70;;
69226;SDS011;56334;52.398;7.552;2023-05-31T15:56:43;8.13;;;2.63;;
69226;SDS011;56334;52.398;7.552;2023-05-31T15:59:09;12.20;;;3.25;;
69226;SDS011;56334;52.398;7.552;2023-05-31T16:04:01;8.27;;;2.85;;
69226;SDS011;56334;52.398;7.552;2023-05-31T16:06:28;9.82;;;2.95;;
69226;SDS011;56334;52.398;7.552;2023-05-31T16:08:55;9.25;;;2.97;;
69226;SDS011;56334;52.398;7.552;2023-05-31T16:11:22;9.40;;;2.75;;
69226;SDS011;56334;52.398;7.552;2023-05-31T16:13:49;9.40;;;2.78;;
69226;SDS011;56334;52.398;7.552;2023-05-31T16:16:15;9.18;;;2.97;;
69226;SDS011;56334;52.398;7.552;2023-05-31T16:18:42;9.80;;;2.75;;
69226;SDS011;56334;52.398;7.552;2023-05-31T16:21:08;8.82;;;2.78;;
69226;SDS011;56334;52.398;7.552;2023-05-31T16:23:34;7.88;;;2.30;;
69226;SDS011;56334;52.398;7.552;2023-05-31T16:28:28;7.97;;;2.38;;
69226;SDS011;56334;52.398;7.552;2023-05-31T16:30:54;7.60;;;2.17;;
69226;SDS011;56334;52.398;7.552;2023-05-31T16:33:21;8.98;;;2.22;;
69226;SDS011;56334;52.398;7.552;2023-05-31T16:35:47;7.47;;;2.20;;
69226;SDS011;56334;52.398;7.552;2023-05-31T16:38:13;8.95;;;2.30;;
69226;SDS011;56334;52.398;7.552;2023-05-31T16:43:05;8.25;;;2.38;;
69226;SDS011;56334;52.398;7.552;2023-05-31T16:47:57;8.35;;;2.40;;